Time;durP1;ratioP1;P1;durP2;ratioP2;P2;SDS_P1;SDS_P2;PMS_P1;PMS_P2;Temp;Humidity;BMP_temperature;BMP_pressure;BME280_temperature;BME280_humidity;BME280_pressure;Samples;Min_cycle;Max_cycle;Signal;HPM_P1;HPM_P2
2021/06/11 00:00:49;;;;;;;7.82;5.72;;;19.40;58.40;;;;;;4960369;28;20028;-70
2021/06/11 00:03:15;;;;;;;8.63;5.22;;;19.50;59.10;;;;;;4959491;28;20944;-70
2021/06/11 00:05:42;;;;;;;9.60;5.45;;;19.50;59.30;;;;;;4959107;28;20030;-70
2021/06/11 00:08:07;;;;;;;8.18;5.60;;;19.50;59.20;;;;;;4959068;28;20398;-71
2021/06/11 00:10:34;;;;;;;8.98;5.20;;;19.40;58.40;;;;;;4952658;29;20038;-70
2021/06/11 00:13:00;;;;;;;7.68;5.05;;;19.40;57.80;;;;;;4954828;29;20091;-70
2021/06/11 00:15:27;;;;;;;7.72;4.97;;;19.40;57.30;;;;;;4959774;29;20028;-70
2021/06/11 00:17:53;;;;;;;7.22;5.13;;;19.30;57.00;;;;;;4959772;28;20019;-70
2021/06/11 00:20:19;;;;;;;9.60;6.38;;;19.40;57.60;;;;;;4957770;28;20039;-70
2021/06/11 00:22:46;;;;;;;10.73;6.03;;;19.30;57.90;;;;;;4959973;29;20050;-70
2021/06/11 00:25:14;;;;;;;8.18;5.68;;;19.30;58.00;;;;;;4958246;28;20438;-70
2021/06/11 00:27:40;;;;;;;8.48;5.60;;;19.20;58.00;;;;;;4959966;28;20039;-70
2021/06/11 00:30:08;;;;;;;10.60;6.13;;;19.30;58.70;;;;;;4949403;28;20023;-70
2021/06/11 00:32:34;;;;;;;9.75;5.50;;;19.20;58.80;;;;;;4960046;28;20046;-70
2021/06/11 00:35:00;;;;;;;9.18;5.40;;;19.20;58.60;;;;;;4958764;28;20102;-70
2021/06/11 00:37:26;;;;;;;9.10;5.45;;;19.10;58.10;;;;;;4958591;28;20055;-70
2021/06/11 00:39:52;;;;;;;8.82;5.78;;;19.10;57.80;;;;;;4948536;29;20508;-71
2021/06/11 00:42:17;;;;;;;8.52;5.70;;;19.10;59.30;;;;;;4958176;28;20023;-70
2021/06/11 00:44:43;;;;;;;9.13;5.68;;;19.10;59.00;;;;;;4957585;29;20035;-70
2021/06/11 00:47:10;;;;;;;8.13;5.45;;;19.10;58.50;;;;;;4955533;29;20027;-71
2021/06/11 00:49:36;;;;;;;10.05;5.75;;;19.10;59.40;;;;;;4957178;29;20032;-71
2021/06/11 00:52:05;;;;;;;9.05;4.88;;;19.10;58.70;;;;;;4959318;28;20504;-70
2021/06/11 00:54:31;;;;;;;7.60;4.88;;;19.10;58.70;;;;;;4946791;29;20074;-71
2021/06/11 00:56:57;;;;;;;7.60;5.18;;;19.20;59.50;;;;;;4952159;29;20024;-71
2021/06/11 00:59:24;;;;;;;8.00;4.68;;;19.10;59.50;;;;;;4953057;29;20038;-70
2021/06/11 01:01:50;;;;;;;8.13;5.22;;;19.20;60.50;;;;;;4946365;28;20462;-70
2021/06/11 01:04:16;;;;;;;8.05;5.25;;;19.10;59.40;;;;;;4958832;29;20070;-70
2021/06/11 01:06:43;;;;;;;8.05;4.57;;;19.10;60.20;;;;;;4958801;28;20054;-71
2021/06/11 01:09:11;;;;;;;8.88;5.50;;;19.10;59.70;;;;;;4959576;28;20031;-71
2021/06/11 01:11:39;;;;;;;8.65;5.30;;;19.20;60.00;;;;;;4946154;28;20027;-71
2021/06/11 01:14:06;;;;;;;7.03;4.72;;;19.20;60.30;;;;;;4958745;28;20027;-70
2021/06/11 01:16:32;;;;;;;8.50;5.50;;;19.10;60.60;;;;;;4958322;28;20411;-71
2021/06/11 01:18:58;;;;;;;8.40;4.95;;;19.10;60.50;;;;;;4958801;29;20036;-71
2021/06/11 01:21:30;;;;;;;8.88;5.30;;;19.20;59.80;;;;;;4958852;28;20032;-71
2021/06/11 01:24:01;;;;;;;8.53;4.50;;;19.10;61.40;;;;;;4958192;28;20106;-71
2021/06/11 01:26:34;;;;;;;7.40;4.57;;;19.10;61.90;;;;;;4957962;29;20170;-70
2021/06/11 01:29:04;;;;;;;7.97;5.15;;;19.10;60.60;;;;;;4947359;29;20330;-70
2021/06/11 01:31:32;;;;;;;8.75;5.18;;;19.10;61.80;;;;;;4958371;28;20110;-71
2021/06/11 01:34:02;;;;;;;8.25;5.15;;;19.10;61.70;;;;;;4958605;28;20402;-71
2021/06/11 01:36:34;;;;;;;7.90;4.85;;;19.00;60.80;;;;;;4958892;28;20031;-70
2021/06/11 01:39:03;;;;;;;8.80;5.25;;;19.00;61.70;;;;;;4950089;29;20035;-70
2021/06/11 01:41:31;;;;;;;7.15;4.72;;;19.00;61.00;;;;;;4957543;28;20044;-70
2021/06/11 01:43:59;;;;;;;8.50;5.43;;;19.00;61.00;;;;;;4959099;28;20039;-71
2021/06/11 01:46:28;;;;;;;8.50;4.40;;;19.00;61.60;;;;;;4958831;28;20031;-70
2021/06/11 01:48:55;;;;;;;7.57;5.10;;;19.00;61.60;;;;;;4958046;28;20075;-70
2021/06/11 01:51:21;;;;;;;10.27;4.88;;;19.00;61.20;;;;;;4961242;29;20031;-70
2021/06/11 01:53:48;;;;;;;8.20;5.07;;;19.00;62.00;;;;;;4962202;28;20027;-71
2021/06/11 01:56:19;;;;;;;7.50;4.97;;;18.90;63.50;;;;;;4962996;28;20025;-71
2021/06/11 01:58:45;;;;;;;8.27;4.63;;;18.90;62.20;;;;;;4962700;28;20039;-71
2021/06/11 02:01:16;;;;;;;8.68;4.70;;;18.90;61.70;;;;;;4959319;28;20430;-70
2021/06/11 02:03:44;;;;;;;7.10;4.10;;;18.90;61.50;;;;;;4961782;28;20043;-71
2021/06/11 02:06:16;;;;;;;6.78;4.35;;;18.90;61.60;;;;;;4962560;28;20024;-71
2021/06/11 02:08:47;;;;;;;9.23;4.57;;;18.90;61.80;;;;;;4951165;28;20067;-70
2021/06/11 02:11:13;;;;;;;8.52;5.05;;;18.80;63.20;;;;;;4961992;28;20498;-70
2021/06/11 02:13:47;;;;;;;6.80;4.65;;;18.80;62.00;;;;;;4962434;28;20094;-71
2021/06/11 02:16:16;;;;;;;6.20;4.38;;;18.80;62.80;;;;;;4962572;28;20387;-71
2021/06/11 02:18:44;;;;;;;7.53;4.32;;;18.80;63.00;;;;;;4961465;28;20122;-71
2021/06/11 02:21:12;;;;;;;6.07;4.28;;;18.80;62.60;;;;;;4961559;28;20027;-71
2021/06/11 02:23:38;;;;;;;7.22;3.83;;;18.80;62.90;;;;;;4949138;28;20034;-71
2021/06/11 02:26:06;;;;;;;6.88;3.67;;;18.70;62.40;;;;;;4962302;28;20019;-71
2021/06/11 02:28:32;;;;;;;6.43;4.55;;;18.80;63.70;;;;;;4950182;28;20114;-71
2021/06/11 02:31:01;;;;;;;5.97;3.63;;;18.70;63.50;;;;;;4961968;28;20054;-71
2021/06/11 02:33:27;;;;;;;5.95;3.58;;;18.70;62.20;;;;;;4961613;28;20079;-70
2021/06/11 02:35:54;;;;;;;6.72;3.63;;;18.70;62.00;;;;;;4961487;28;20110;-71
2021/06/11 02:38:21;;;;;;;6.50;3.38;;;18.70;61.90;;;;;;4960525;28;20402;-70
2021/06/11 02:40:51;;;;;;;5.50;3.47;;;18.70;62.10;;;;;;4961361;28;20070;-71
2021/06/11 02:43:21;;;;;;;6.03;3.55;;;18.70;61.90;;;;;;4956128;28;20023;-70
2021/06/11 02:46:13;;;;;;;6.03;3.47;;;18.60;61.60;;;;;;4961900;28;20516;-71
2021/06/11 02:48:55;;;;;;;6.22;3.70;;;18.70;61.90;;;;;;4960009;28;20043;-71
2021/06/11 02:51:50;;;;;;;6.13;3.47;;;18.60;61.80;;;;;;4951830;29;20490;-71
2021/06/11 02:54:24;;;;;;;6.82;4.10;;;18.60;61.80;;;;;;4949081;29;20034;-71
2021/06/11 02:57:04;;;;;;;7.10;4.10;;;18.60;64.30;;;;;;4960968;28;20031;-71
2021/06/11 02:59:38;;;;;;;7.38;4.45;;;18.60;62.70;;;;;;4961323;28;20110;-70
2021/06/11 03:02:09;;;;;;;5.85;3.65;;;18.60;62.60;;;;;;4961028;28;20032;-70
2021/06/11 03:04:46;;;;;;;7.22;4.15;;;18.50;62.40;;;;;;4961164;28;20023;-71
2021/06/11 03:07:30;;;;;;;8.68;4.95;;;18.50;62.70;;;;;;4960846;28;20023;-70
2021/06/11 03:10:00;;;;;;;8.40;5.20;;;18.50;64.30;;;;;;4960505;28;20478;-71
2021/06/11 03:12:28;;;;;;;8.30;4.57;;;18.50;63.10;;;;;;4960333;28;20035;-71
2021/06/11 03:14:54;;;;;;;6.63;4.30;;;18.40;62.90;;;;;;4961070;28;20524;-70
2021/06/11 03:17:27;;;;;;;6.90;4.30;;;18.50;62.70;;;;;;4961284;28;20470;-71
2021/06/11 03:19:57;;;;;;;7.05;4.25;;;18.40;62.40;;;;;;4959087;29;20114;-70
2021/06/11 03:22:31;;;;;;;6.93;4.45;;;18.40;62.10;;;;;;4948276;28;20039;-70
2021/06/11 03:25:22;;;;;;;9.63;5.32;;;18.50;62.20;;;;;;4960792;28;20035;-71
2021/06/11 03:27:54;;;;;;;8.20;4.85;;;18.40;62.30;;;;;;4955653;29;20047;-70
2021/06/11 03:30:24;;;;;;;7.72;4.72;;;18.40;62.80;;;;;;4957175;28;20039;-71
2021/06/11 03:33:00;;;;;;;6.75;4.43;;;18.50;62.90;;;;;;4959630;29;20046;-71
2021/06/11 03:35:35;;;;;;;9.23;4.95;;;18.50;62.90;;;;;;4959410;29;20114;-70
2021/06/11 03:38:03;;;;;;;11.80;5.55;;;18.50;63.30;;;;;;4950827;28;20118;-71
2021/06/11 03:40:33;;;;;;;7.60;4.40;;;18.40;65.40;;;;;;4958216;28;20577;-70
2021/06/11 03:43:00;;;;;;;9.38;5.60;;;18.40;65.30;;;;;;4961005;28;20023;-70
2021/06/11 03:45:28;;;;;;;7.07;4.32;;;18.40;64.20;;;;;;4959922;29;20027;-70
2021/06/11 03:47:56;;;;;;;8.10;4.80;;;18.30;64.20;;;;;;4960408;28;20546;-71
2021/06/11 03:50:25;;;;;;;6.55;4.18;;;18.30;63.70;;;;;;4959063;28;20035;-70
2021/06/11 03:52:55;;;;;;;6.53;4.45;;;18.30;64.50;;;;;;4960722;28;20393;-71
2021/06/11 03:55:29;;;;;;;7.18;4.93;;;18.30;64.90;;;;;;4947863;29;20102;-71
2021/06/11 03:58:11;;;;;;;7.18;4.70;;;18.30;65.20;;;;;;4959971;28;20031;-71
2021/06/11 04:00:38;;;;;;;6.15;4.13;;;18.30;64.90;;;;;;4958870;29;20042;-71
2021/06/11 04:03:05;;;;;;;6.70;4.15;;;18.20;63.90;;;;;;4960294;28;20494;-70
2021/06/11 04:05:33;;;;;;;6.40;3.63;;;18.30;64.30;;;;;;4959437;28;20127;-71
2021/06/11 04:07:59;;;;;;;8.20;4.70;;;18.20;64.00;;;;;;4960202;28;20102;-70
2021/06/11 04:10:43;;;;;;;6.53;4.40;;;18.20;63.90;;;;;;4959997;28;20390;-70
2021/06/11 04:13:28;;;;;;;7.03;4.75;;;18.20;64.60;;;;;;4947529;29;20018;-71
2021/06/11 04:15:55;;;;;;;6.13;4.10;;;18.20;65.20;;;;;;4959898;28;20031;-71
2021/06/11 04:18:28;;;;;;;7.30;4.45;;;18.20;65.10;;;;;;4960104;28;20030;-71
2021/06/11 04:20:59;;;;;;;7.22;4.30;;;18.20;64.80;;;;;;4959832;28;20020;-71
2021/06/11 04:23:29;;;;;;;8.48;4.18;;;18.10;65.70;;;;;;4960343;28;20022;-70
2021/06/11 04:25:57;;;;;;;6.65;4.22;;;18.10;65.20;;;;;;4959696;28;20566;-70
2021/06/11 04:28:26;;;;;;;7.30;4.55;;;18.10;64.50;;;;;;4957735;28;20039;-70
2021/06/11 04:30:53;;;;;;;6.47;4.10;;;18.10;64.80;;;;;;4959596;29;20082;-70
2021/06/11 04:33:27;;;;;;;6.05;3.72;;;18.10;65.20;;;;;;4959426;29;20026;-71
2021/06/11 04:35:53;;;;;;;6.25;3.58;;;18.10;64.70;;;;;;4959238;28;20035;-70
2021/06/11 04:38:20;;;;;;;5.10;3.30;;;18.10;65.50;;;;;;4956094;28;20035;-71
2021/06/11 04:40:46;;;;;;;4.82;2.75;;;18.00;64.70;;;;;;4959698;28;20051;-71
2021/06/11 04:43:12;;;;;;;4.50;2.60;;;18.00;64.80;;;;;;4959567;29;20074;-71
2021/06/11 04:45:38;;;;;;;4.95;3.13;;;18.00;65.00;;;;;;4955952;28;20031;-70
2021/06/11 04:48:05;;;;;;;4.97;2.90;;;18.00;65.40;;;;;;4949773;29;20067;-70
2021/06/11 04:50:31;;;;;;;5.00;2.97;;;18.00;66.00;;;;;;4946377;29;20075;-70
2021/06/11 04:52:57;;;;;;;5.22;3.17;;;17.90;64.80;;;;;;4959222;28;20027;-71
2021/06/11 04:55:23;;;;;;;5.15;2.40;;;17.90;65.00;;;;;;4959227;28;20082;-71
2021/06/11 04:57:50;;;;;;;4.05;2.17;;;17.90;65.20;;;;;;4959306;28;20405;-71
2021/06/11 05:00:17;;;;;;;4.47;2.38;;;17.90;65.50;;;;;;4958332;28;20493;-70
2021/06/11 05:02:43;;;;;;;4.20;2.38;;;17.90;64.70;;;;;;4959413;28;20031;-69
2021/06/11 05:05:09;;;;;;;4.60;2.33;;;17.90;64.90;;;;;;4958860;28;20023;-71
2021/06/11 05:07:36;;;;;;;4.28;2.40;;;17.80;63.90;;;;;;4959406;28;20078;-71
2021/06/11 05:10:03;;;;;;;3.72;2.13;;;17.80;63.90;;;;;;4959000;29;20034;-71
2021/06/11 05:12:29;;;;;;;4.65;2.10;;;17.90;64.30;;;;;;4959699;28;20026;-71
2021/06/11 05:14:55;;;;;;;3.90;1.88;;;17.90;64.00;;;;;;4958982;28;20031;-70
2021/06/11 05:17:20;;;;;;;3.85;2.05;;;17.90;64.30;;;;;;4959437;28;20034;-70
2021/06/11 05:19:46;;;;;;;3.35;1.70;;;17.90;64.10;;;;;;4958982;28;20031;-70
2021/06/11 05:22:12;;;;;;;4.22;1.70;;;17.90;64.80;;;;;;4959253;28;20066;-70
2021/06/11 05:24:38;;;;;;;5.57;2.05;;;17.90;64.40;;;;;;4958458;28;20549;-71
2021/06/11 05:27:05;;;;;;;3.70;1.75;;;17.90;65.40;;;;;;4958906;28;20039;-71
2021/06/11 05:29:30;;;;;;;3.35;1.60;;;17.90;64.60;;;;;;4953884;29;20385;-72
2021/06/11 05:31:56;;;;;;;3.97;1.90;;;17.90;64.30;;;;;;4958031;29;20110;-71
2021/06/11 05:34:22;;;;;;;4.18;2.00;;;17.90;65.60;;;;;;4958646;28;20382;-71
2021/06/11 05:36:48;;;;;;;3.50;1.40;;;17.90;64.60;;;;;;4958782;28;20098;-69
2021/06/11 05:39:14;;;;;;;3.72;1.70;;;17.90;65.40;;;;;;4947796;28;20032;-71
2021/06/11 05:41:39;;;;;;;4.05;2.15;;;17.90;64.90;;;;;;4958974;28;20050;-69
2021/06/11 05:44:05;;;;;;;4.28;1.80;;;17.90;65.90;;;;;;4958413;28;20034;-68
2021/06/11 05:46:32;;;;;;;3.00;1.40;;;17.90;65.10;;;;;;4958674;28;20042;-70
2021/06/11 05:48:58;;;;;;;3.75;1.92;;;17.80;65.00;;;;;;4957376;29;20066;-71
2021/06/11 05:51:24;;;;;;;5.15;2.00;;;17.80;65.20;;;;;;4958332;28;20047;-71
2021/06/11 05:53:49;;;;;;;4.70;2.13;;;17.90;65.50;;;;;;4958348;28;20067;-76
2021/06/11 05:56:15;;;;;;;4.07;1.90;;;17.90;64.90;;;;;;4957957;28;20079;-74
2021/06/11 05:58:41;;;;;;;4.72;2.25;;;17.90;64.90;;;;;;4957023;29;20039;-67
2021/06/11 06:01:07;;;;;;;5.30;2.55;;;18.00;65.40;;;;;;4958168;28;20031;-69
2021/06/11 06:03:33;;;;;;;4.30;2.38;;;18.00;66.20;;;;;;4958092;28;20046;-72
2021/06/11 06:05:59;;;;;;;4.10;2.25;;;18.10;65.90;;;;;;4944478;29;20031;-69
2021/06/11 06:08:25;;;;;;;4.03;2.30;;;18.10;66.40;;;;;;4957946;28;20042;-71
2021/06/11 06:10:50;;;;;;;3.80;2.30;;;18.20;65.90;;;;;;4952761;28;20486;-70
2021/06/11 06:13:16;;;;;;;4.43;2.38;;;18.20;66.00;;;;;;4961048;28;20054;-68
2021/06/11 06:15:43;;;;;;;4.15;2.33;;;18.30;65.80;;;;;;4966297;28;20041;-68
2021/06/11 06:18:09;;;;;;;3.72;2.08;;;18.30;66.40;;;;;;4958191;28;20039;-68
2021/06/11 06:20:37;;;;;;;4.10;2.10;;;18.30;66.00;;;;;;4957600;28;20032;-67
2021/06/11 06:23:03;;;;;;;4.28;2.45;;;18.40;66.10;;;;;;4955692;29;20211;-69
2021/06/11 06:25:29;;;;;;;5.07;2.40;;;18.40;65.80;;;;;;4958264;28;20096;-69
2021/06/11 06:27:55;;;;;;;4.68;2.30;;;18.50;65.60;;;;;;4958583;28;20059;-69
2021/06/11 06:30:23;;;;;;;4.72;2.40;;;18.50;65.70;;;;;;4952426;28;20035;-69
2021/06/11 06:32:49;;;;;;;5.35;2.90;;;18.50;65.70;;;;;;4962522;28;20494;-68
2021/06/11 06:35:19;;;;;;;6.20;3.15;;;18.50;65.50;;;;;;4955687;28;20055;-69
2021/06/11 06:37:46;;;;;;;5.32;3.30;;;18.50;65.70;;;;;;4959387;28;20066;-68
2021/06/11 06:40:12;;;;;;;5.22;3.42;;;18.50;65.80;;;;;;4950358;28;20114;-69
2021/06/11 06:42:38;;;;;;;5.63;3.95;;;18.50;66.40;;;;;;4954998;29;20015;-69
2021/06/11 06:45:08;;;;;;;5.30;3.33;;;18.50;66.00;;;;;;4961290;28;20477;-68
2021/06/11 06:47:34;;;;;;;4.93;3.10;;;18.50;65.90;;;;;;4960418;28;20426;-69
2021/06/11 06:50:00;;;;;;;5.45;3.05;;;18.60;65.90;;;;;;4960676;28;20054;-70
2021/06/11 06:52:26;;;;;;;8.88;5.93;;;18.60;67.30;;;;;;4961546;28;20026;-70
2021/06/11 06:54:52;;;;;;;7.05;4.45;;;18.60;67.60;;;;;;4961114;28;20035;-69
2021/06/11 06:57:18;;;;;;;5.72;3.70;;;18.60;66.50;;;;;;4959080;29;20061;-69
2021/06/11 06:59:44;;;;;;;6.35;3.42;;;18.60;66.40;;;;;;4960596;28;20020;-68
2021/06/11 07:02:10;;;;;;;5.25;2.90;;;18.50;67.10;;;;;;4960445;28;20082;-71
2021/06/11 07:04:36;;;;;;;5.75;3.20;;;18.50;66.80;;;;;;4960715;28;20027;-72
2021/06/11 07:07:02;;;;;;;5.57;3.25;;;18.50;66.60;;;;;;4962078;28;20035;-69
2021/06/11 07:09:28;;;;;;;6.00;3.35;;;18.50;66.90;;;;;;4964574;28;20031;-69
2021/06/11 07:11:54;;;;;;;5.43;2.95;;;18.60;68.10;;;;;;4961220;28;20027;-68
2021/06/11 07:14:22;;;;;;;7.68;3.08;;;18.60;67.50;;;;;;4959792;28;20027;-69
2021/06/11 07:16:48;;;;;;;4.93;3.00;;;18.60;67.30;;;;;;4959399;29;20053;-69
2021/06/11 07:19:14;;;;;;;5.00;3.03;;;18.60;67.20;;;;;;4960552;28;20478;-69
2021/06/11 07:21:40;;;;;;;5.82;3.58;;;18.70;67.20;;;;;;4960229;29;20114;-69
2021/06/11 07:24:07;;;;;;;5.60;3.20;;;18.70;67.40;;;;;;4960331;29;20078;-69
2021/06/11 07:26:33;;;;;;;5.75;3.25;;;18.70;67.50;;;;;;4959988;29;20058;-69
2021/06/11 07:28:59;;;;;;;5.40;3.42;;;18.80;68.00;;;;;;4957550;29;20066;-69
2021/06/11 07:31:29;;;;;;;5.28;3.20;;;18.80;67.80;;;;;;4960274;28;20394;-69
2021/06/11 07:33:55;;;;;;;4.75;3.00;;;18.80;67.60;;;;;;4960067;28;20024;-70
2021/06/11 07:36:21;;;;;;;5.72;3.20;;;18.90;68.00;;;;;;4959127;28;20102;-69
2021/06/11 07:38:47;;;;;;;6.60;3.03;;;19.00;67.70;;;;;;4957449;28;20036;-68
2021/06/11 07:41:12;;;;;;;16.83;11.52;;;19.10;67.70;;;;;;4959161;28;20047;-68
2021/06/11 07:43:38;;;;;;;6.68;3.78;;;19.20;67.70;;;;;;4959748;28;20108;-69
2021/06/11 07:46:04;;;;;;;6.47;3.22;;;19.30;67.80;;;;;;4955848;28;20032;-68
2021/06/11 07:48:30;;;;;;;5.63;3.40;;;19.40;67.40;;;;;;4957393;28;20035;-68
2021/06/11 07:50:56;;;;;;;5.15;3.33;;;19.50;67.50;;;;;;4960466;29;20031;-68
2021/06/11 07:53:23;;;;;;;5.95;2.83;;;19.60;67.60;;;;;;4959723;28;20486;-69
2021/06/11 07:55:50;;;;;;;5.72;3.30;;;19.60;67.00;;;;;;4959686;28;20398;-67
2021/06/11 07:58:17;;;;;;;5.88;2.92;;;19.70;67.10;;;;;;4959773;28;20057;-68
2021/06/11 08:00:43;;;;;;;4.72;2.85;;;19.70;66.70;;;;;;4959149;28;20038;-69
2021/06/11 08:03:08;;;;;;;5.82;3.05;;;19.70;67.20;;;;;;4959069;29;20032;-71
2021/06/11 08:05:35;;;;;;;13.25;8.73;;;19.80;67.60;;;;;;4959947;28;20031;-71
2021/06/11 08:08:00;;;;;;;16.50;9.95;;;19.90;67.40;;;;;;4958095;28;20031;-71
2021/06/11 08:10:26;;;;;;;25.33;18.92;;;20.00;67.40;;;;;;4958094;28;20026;-70
2021/06/11 08:12:53;;;;;;;12.13;8.75;;;20.00;66.90;;;;;;4957559;29;20430;-70
2021/06/11 08:15:19;;;;;;;5.35;3.63;;;20.10;67.20;;;;;;4958536;28;20039;-71
2021/06/11 08:17:45;;;;;;;4.55;2.58;;;20.20;67.00;;;;;;4958233;28;20031;-70
2021/06/11 08:20:11;;;;;;;4.63;2.80;;;20.50;67.70;;;;;;4959645;28;20450;-70
2021/06/11 08:22:38;;;;;;;6.22;3.15;;;20.80;68.30;;;;;;4959438;28;20019;-69
2021/06/11 08:25:09;;;;;;;5.50;3.28;;;21.10;67.20;;;;;;4958524;28;20085;-70
2021/06/11 08:27:35;;;;;;;4.97;2.60;;;21.30;66.10;;;;;;4959217;28;20015;-70
2021/06/11 08:30:01;;;;;;;4.70;3.03;;;21.30;65.70;;;;;;4948332;28;20438;-70
2021/06/11 08:32:30;;;;;;;5.70;3.10;;;21.30;65.70;;;;;;4958984;28;20031;-70
2021/06/11 08:34:56;;;;;;;4.75;2.97;;;21.40;65.50;;;;;;4958156;28;20023;-70
2021/06/11 08:37:23;;;;;;;6.03;3.50;;;21.40;65.30;;;;;;4957713;28;20035;-70
2021/06/11 08:39:53;;;;;;;4.70;2.38;;;21.50;65.30;;;;;;4952931;28;20034;-70
2021/06/11 08:42:29;;;;;;;5.30;2.60;;;21.70;65.60;;;;;;4958120;28;20023;-70
2021/06/11 08:44:58;;;;;;;5.90;2.88;;;21.90;65.50;;;;;;4956331;29;20019;-70
2021/06/11 08:47:27;;;;;;;4.47;2.28;;;22.10;65.50;;;;;;4956059;29;20035;-70
2021/06/11 08:49:53;;;;;;;5.07;2.70;;;22.50;65.90;;;;;;4957578;28;20043;-71
2021/06/11 08:52:19;;;;;;;5.20;3.03;;;22.70;65.70;;;;;;4958597;28;20031;-70
2021/06/11 08:54:47;;;;;;;4.90;2.70;;;22.90;64.50;;;;;;4959138;28;20087;-70
2021/06/11 08:57:14;;;;;;;3.80;2.25;;;23.20;64.80;;;;;;4958550;28;20023;-70
2021/06/11 08:59:41;;;;;;;4.00;2.67;;;23.60;65.70;;;;;;4957070;28;20051;-71
2021/06/11 09:02:07;;;;;;;5.05;2.30;;;24.00;64.80;;;;;;4958341;28;20035;-71
2021/06/11 09:04:57;;;;;;;4.82;2.50;;;24.50;63.10;;;;;;4958490;29;20039;-71
2021/06/11 09:07:33;;;;;;;4.63;2.58;;;24.80;62.90;;;;;;4956911;29;20035;-71
2021/06/11 09:10:07;;;;;;;3.72;2.15;;;25.20;62.80;;;;;;4958422;28;20031;-71
2021/06/11 09:12:40;;;;;;;3.53;2.25;;;25.70;63.80;;;;;;4959334;28;20027;-71
2021/06/11 09:15:15;;;;;;;3.80;2.30;;;26.30;62.90;;;;;;4958690;28;20023;-71
2021/06/11 09:17:53;;;;;;;5.82;2.33;;;26.90;62.70;;;;;;4954842;28;20094;-72
2021/06/11 09:20:27;;;;;;;3.70;2.20;;;27.50;61.40;;;;;;4958917;29;20035;-72
2021/06/11 09:23:02;;;;;;;4.30;2.15;;;28.10;61.80;;;;;;4957941;29;20027;-70
2021/06/11 09:25:34;;;;;;;13.98;11.93;;;28.70;61.70;;;;;;4957955;28;20082;-72
2021/06/11 09:28:11;;;;;;;5.18;3.40;;;29.20;60.90;;;;;;4958498;28;20031;-72
2021/06/11 09:30:36;;;;;;;4.57;2.00;;;29.70;60.30;;;;;;4961646;28;20027;-72
2021/06/11 09:33:05;;;;;;;3.72;1.65;;;30.20;54.70;;;;;;4960599;28;20086;-72
2021/06/11 09:35:39;;;;;;;16.40;5.43;;;30.40;56.50;;;;;;4952966;29;20031;-70
2021/06/11 09:38:12;;;;;;;16.90;5.22;;;30.70;56.50;;;;;;4956740;28;20110;-72
2021/06/11 09:40:39;;;;;;;14.48;5.57;;;31.10;56.10;;;;;;4955630;28;20035;-72
2021/06/11 09:43:05;;;;;;;52.28;15.80;;;31.40;55.70;;;;;;4958660;28;20368;-71
2021/06/11 09:45:31;;;;;;;44.60;13.48;;;31.70;55.60;;;;;;4957796;29;20039;-71
2021/06/11 09:47:57;;;;;;;4.68;2.40;;;32.10;55.70;;;;;;4948592;28;20442;-72
2021/06/11 09:50:35;;;;;;;35.00;9.75;;;32.50;54.10;;;;;;4953769;28;20074;-70
2021/06/11 09:53:09;;;;;;;21.48;8.48;;;32.70;54.20;;;;;;4959136;28;20051;-71
2021/06/11 09:55:40;;;;;;;18.98;5.70;;;32.90;53.20;;;;;;4957763;28;20504;-72
2021/06/11 09:58:17;;;;;;;25.65;7.20;;;33.20;52.80;;;;;;4952026;28;20442;-70
2021/06/11 10:01:09;;;;;;;11.52;3.20;;;33.40;52.90;;;;;;4950492;28;20514;-72
2021/06/11 10:03:36;;;;;;;;;;;33.70;52.90;;;;;;4956454;29;20050;-71
2021/06/11 10:06:07;;;;;;;19.63;5.10;;;34.00;50.70;;;;;;4959612;28;19910;-71
2021/06/11 10:08:34;;;;;;;23.83;7.75;;;34.20;52.00;;;;;;4957413;28;20597;-70
2021/06/11 10:11:03;;;;;;;60.40;16.58;;;34.50;51.10;;;;;;4958847;28;20031;-72
2021/06/11 10:13:30;;;;;;;8.10;3.80;;;34.70;51.30;;;;;;4952096;29;20019;-71
2021/06/11 10:15:58;;;;;;;33.63;9.95;;;34.90;50.80;;;;;;4961543;28;20106;-71
2021/06/11 10:18:25;;;;;;;48.60;14.73;;;35.20;49.80;;;;;;4960848;28;20518;-72
2021/06/11 10:20:52;;;;;;;9.52;4.25;;;35.40;50.30;;;;;;4961280;29;20054;-67
2021/06/11 10:23:21;;;;;;;4.65;2.35;;;35.60;50.60;;;;;;4960969;28;20027;-69
2021/06/11 10:25:51;;;;;;;3.20;1.70;;;35.80;48.60;;;;;;4955703;28;20031;-70
2021/06/11 10:28:28;;;;;;;3.40;1.73;;;36.00;47.50;;;;;;4957342;29;20498;-68
2021/06/11 10:31:01;;;;;;;2.83;1.40;;;36.20;48.20;;;;;;4960255;28;20541;-70
2021/06/11 10:33:49;;;;;;;4.13;1.90;;;36.40;47.60;;;;;;4961364;28;20028;-68
2021/06/11 10:36:31;;;;;;;2.08;1.05;;;36.60;48.10;;;;;;4955384;28;20082;-70
2021/06/11 10:39:21;;;;;;;3.33;1.30;;;36.90;47.50;;;;;;4952387;28;20024;-68
2021/06/11 10:41:58;;;;;;;3.53;1.58;;;37.10;47.20;;;;;;4959950;28;20043;-67
2021/06/11 10:44:41;;;;;;;3.53;1.40;;;37.30;47.00;;;;;;4947328;29;20028;-70
2021/06/11 10:47:28;;;;;;;2.42;1.35;;;37.50;46.70;;;;;;4954941;29;20020;-69
2021/06/11 10:49:57;;;;;;;3.50;1.27;;;37.70;47.00;;;;;;4944004;29;20550;-66
2021/06/11 10:52:41;;;;;;;5.28;3.35;;;37.80;44.10;;;;;;4961621;28;20086;-66
2021/06/11 10:55:13;;;;;;;5.03;1.85;;;37.90;41.90;;;;;;4960316;28;20390;-68
2021/06/11 10:57:39;;;;;;;20.85;16.35;;;37.90;45.30;;;;;;4960204;29;20055;-69
2021/06/11 11:00:26;;;;;;;16.88;11.23;;;38.00;45.10;;;;;;4960987;29;20026;-72
2021/06/11 11:03:03;;;;;;;37.35;27.92;;;38.10;44.30;;;;;;4952898;28;20065;-71
2021/06/11 11:05:36;;;;;;;16.15;11.10;;;38.40;40.70;;;;;;4941420;29;20354;-70
2021/06/11 11:08:05;;;;;;;8.07;4.53;;;38.40;44.60;;;;;;4957357;29;20047;-69
2021/06/11 11:10:39;;;;;;;5.68;3.25;;;38.50;44.00;;;;;;4961109;28;20023;-73
2021/06/11 11:13:07;;;;;;;15.02;13.48;;;38.60;43.60;;;;;;4961121;28;20035;-71
2021/06/11 11:15:34;;;;;;;7.93;4.57;;;38.70;44.10;;;;;;4961016;28;20360;-72
2021/06/11 11:18:00;;;;;;;31.73;28.83;;;38.80;43.70;;;;;;4960038;28;20059;-68
2021/06/11 11:20:31;;;;;;;12.18;7.07;;;38.90;44.00;;;;;;4961054;28;20031;-67
2021/06/11 11:23:01;;;;;;;3.67;1.50;;;39.00;43.90;;;;;;4960801;28;20364;-72
2021/06/11 11:25:28;;;;;;;4.00;1.90;;;39.10;42.90;;;;;;4960794;28;20371;-70
2021/06/11 11:27:55;;;;;;;4.80;2.50;;;39.20;43.20;;;;;;4960914;28;20361;-69
2021/06/11 11:30:28;;;;;;;6.38;3.10;;;39.30;43.00;;;;;;4955282;28;20355;-70
2021/06/11 11:32:59;;;;;;;4.05;1.67;;;39.30;40.80;;;;;;4961012;28;20023;-70
2021/06/11 11:35:28;;;;;;;5.28;1.63;;;39.30;38.50;;;;;;4960753;28;20417;-69
2021/06/11 11:37:55;;;;;;;2.38;1.00;;;39.00;40.30;;;;;;4957016;28;20035;-68
2021/06/11 11:40:32;;;;;;;4.75;1.77;;;38.80;40.90;;;;;;4958920;28;20035;-67
2021/06/11 11:43:02;;;;;;;4.40;1.58;;;38.60;37.30;;;;;;4959714;28;20036;-69
2021/06/11 11:45:30;;;;;;;2.88;1.42;;;38.30;40.00;;;;;;4960737;28;20756;-68
2021/06/11 11:48:03;;;;;;;3.10;1.40;;;38.00;41.00;;;;;;4957536;28;20038;-72
2021/06/11 11:50:31;;;;;;;3.10;1.38;;;37.70;40.10;;;;;;4959778;29;20478;-72
2021/06/11 11:52:57;;;;;;;2.50;1.10;;;37.40;38.00;;;;;;4960006;28;20042;-69
2021/06/11 11:55:23;;;;;;;10.07;7.82;;;36.90;39.90;;;;;;4958411;28;20031;-70
2021/06/11 11:57:49;;;;;;;4.93;2.90;;;36.20;40.20;;;;;;4960077;28;20035;-70
2021/06/11 12:00:16;;;;;;;3.72;1.50;;;35.70;40.90;;;;;;4955587;28;20545;-70
2021/06/11 12:02:43;;;;;;;3.10;1.20;;;35.30;42.70;;;;;;4958254;28;20027;-71
2021/06/11 12:05:11;;;;;;;4.00;1.30;;;34.90;41.70;;;;;;4958818;28;20027;-71
2021/06/11 12:07:36;;;;;;;3.88;1.65;;;34.70;43.80;;;;;;4958946;28;20047;-71
2021/06/11 12:10:03;;;;;;;4.05;1.42;;;34.30;42.00;;;;;;4959898;29;20031;-68
2021/06/11 12:12:29;;;;;;;3.97;1.48;;;34.00;43.50;;;;;;4960194;28;20074;-70
2021/06/11 12:14:55;;;;;;;2.63;1.20;;;33.70;44.80;;;;;;4958105;28;20110;-73
2021/06/11 12:17:21;;;;;;;3.50;1.30;;;33.30;43.60;;;;;;4959753;29;20434;-71
2021/06/11 12:19:47;;;;;;;5.50;1.45;;;33.10;45.10;;;;;;4958156;28;20030;-72
2021/06/11 12:22:14;;;;;;;5.65;1.27;;;32.70;44.30;;;;;;4948538;29;20503;-71
2021/06/11 12:24:41;;;;;;;3.03;1.17;;;32.40;45.00;;;;;;4957659;29;20035;-71
2021/06/11 12:27:07;;;;;;;2.67;1.40;;;32.20;44.60;;;;;;4959754;28;20478;-70
2021/06/11 12:29:33;;;;;;;2.78;1.42;;;31.90;44.90;;;;;;4949082;28;20050;-71
2021/06/11 12:31:59;;;;;;;3.55;1.45;;;31.70;45.50;;;;;;4958132;28;20023;-70
2021/06/11 12:34:25;;;;;;;3.63;1.38;;;31.50;45.70;;;;;;4958053;28;20573;-71
2021/06/11 12:36:54;;;;;;;2.90;1.55;;;31.20;45.20;;;;;;4959494;28;20055;-70
2021/06/11 12:39:20;;;;;;;3.53;1.60;;;31.00;46.20;;;;;;4951475;28;20031;-70
2021/06/11 12:41:53;;;;;;;2.20;1.30;;;30.80;45.80;;;;;;4959315;29;20062;-70
2021/06/11 12:44:19;;;;;;;3.15;1.55;;;30.60;45.80;;;;;;4958950;28;20102;-70
2021/06/11 12:46:48;;;;;;;3.00;1.25;;;30.40;46.50;;;;;;4959276;29;20482;-71
2021/06/11 12:49:14;;;;;;;2.78;1.48;;;30.30;47.40;;;;;;4947109;29;20054;-70
2021/06/11 12:51:41;;;;;;;3.35;1.50;;;30.20;47.70;;;;;;4959270;28;20031;-70
2021/06/11 12:54:08;;;;;;;5.55;1.95;;;30.10;47.50;;;;;;4959043;28;20047;-70